Time;durP1;ratioP1;P1;durP2;ratioP2;P2;SDS_P1;SDS_P2;PMS_P1;PMS_P2;Temp;Humidity;BMP_temperature;BMP_pressure;BME280_temperature;BME280_humidity;BME280_pressure;Samples;Min_cycle;Max_cycle;Signal;HPM_P1;HPM_P2
2022/06/04 00:00:19;;;;;;;15.25;7.35;;;;;;;;;;5055758;28;20415;-72
2022/06/04 00:02:46;;;;;;;16.27;7.55;;;;;;;;;;5053834;28;20051;-72
2022/06/04 00:05:14;;;;;;;15.20;7.22;;;;;;;;;;5055777;28;20040;-73
2022/06/04 00:07:40;;;;;;;13.07;7.38;;;;;;;;;;5055723;28;20166;-73
2022/06/04 00:15:41;;;;;;;13.23;7.82;;;;;;;;;;5055235;28;20041;-73
2022/06/04 00:18:07;;;;;;;14.95;7.63;;;;;;;;;;5072450;28;20049;-73
2022/06/04 00:20:33;;;;;;;12.52;7.68;;;;;;;;;;5058697;28;20080;-73
2022/06/04 00:23:00;;;;;;;13.70;7.28;;;;;;;;;;5059481;28;20072;-72
2022/06/04 00:25:26;;;;;;;15.05;7.72;;;;;;;;;;5081003;28;20041;-74
2022/06/04 00:27:52;;;;;;;15.05;8.48;;;;;;;;;;5072152;28;20050;-73
2022/06/04 00:30:18;;;;;;;16.40;8.10;;;;;;;;;;5069491;28;20049;-73
2022/06/04 00:32:44;;;;;;;17.17;8.15;;;;;;;;;;5069721;28;20051;-73
2022/06/04 00:35:11;;;;;;;14.50;7.05;;;;;;;;;;5072857;28;20079;-73
2022/06/04 00:37:37;;;;;;;15.05;7.72;;;;;;;;;;5067380;28;20083;-74
2022/06/04 00:40:03;;;;;;;14.00;8.30;;;;;;;;;;5058130;28;20112;-73
2022/06/04 00:42:29;;;;;;;17.50;9.48;;;;;;;;;;5058592;28;20135;-73
2022/06/04 00:45:14;;;;;;;15.35;8.82;;;;;;;;;;5068109;28;20502;-73
2022/06/04 00:47:41;;;;;;;19.20;9.23;;;;;;;;;;5066172;28;20044;-73
2022/06/04 00:50:08;;;;;;;17.98;9.65;;;;;;;;;;5059608;28;20036;-73
2022/06/04 00:52:34;;;;;;;23.05;9.98;;;;;;;;;;5054766;28;20080;-73
2022/06/04 00:55:01;;;;;;;16.77;9.38;;;;;;;;;;5054977;28;20095;-73
2022/06/04 00:57:33;;;;;;;18.08;8.55;;;;;;;;;;5081265;28;20093;-73
2022/06/04 01:00:10;;;;;;;15.05;8.90;;;;;;;;;;5058427;28;20550;-72
2022/06/04 01:02:43;;;;;;;17.88;10.15;;;;;;;;;;5054363;28;20498;-73
2022/06/04 01:05:15;;;;;;;15.80;10.27;;;;;;;;;;5054170;28;20585;-73
2022/06/04 01:07:56;;;;;;;13.13;8.10;;;;;;;;;;5061933;28;20042;-73
2022/06/04 01:10:40;;;;;;;20.33;10.00;;;;;;;;;;5059911;28;20143;-73
2022/06/04 01:13:16;;;;;;;21.33;10.73;;;;;;;;;;5067000;28;20052;-74
2022/06/04 01:15:48;;;;;;;17.75;10.10;;;;;;;;;;5073162;28;20040;-72
2022/06/04 01:18:22;;;;;;;16.05;9.88;;;;;;;;;;5065634;28;20037;-73
2022/06/04 01:21:03;;;;;;;15.57;10.13;;;;;;;;;;5063304;28;20510;-73
2022/06/04 01:23:48;;;;;;;19.85;10.20;;;;;;;;;;5054359;28;20048;-73
2022/06/04 01:26:24;;;;;;;24.10;10.52;;;;;;;;;;5053993;28;20045;-73
2022/06/04 01:28:59;;;;;;;18.38;11.18;;;;;;;;;;5077107;28;20046;-73
2022/06/04 01:31:28;;;;;;;18.63;11.45;;;;;;;;;;5076659;28;20048;-72
2022/06/04 01:33:57;;;;;;;21.05;11.40;;;;;;;;;;5068640;28;20048;-74
2022/06/04 01:36:28;;;;;;;23.15;11.35;;;;;;;;;;5054580;28;20130;-72
2022/06/04 01:38:57;;;;;;;19.08;11.65;;;;;;;;;;5068491;28;20051;-73
2022/06/04 01:41:34;;;;;;;17.27;11.68;;;;;;;;;;5053744;28;20049;-72
2022/06/04 01:44:07;;;;;;;19.27;11.40;;;;;;;;;;5052668;28;20048;-73
2022/06/04 01:46:34;;;;;;;21.85;11.75;;;;;;;;;;5064711;28;20426;-73
2022/06/04 01:49:04;;;;;;;19.27;11.45;;;;;;;;;;5067614;28;20037;-73
2022/06/04 01:51:32;;;;;;;20.60;11.07;;;;;;;;;;5061458;28;20051;-73
2022/06/04 01:54:00;;;;;;;22.88;11.82;;;;;;;;;;5073549;28;20105;-72
2022/06/04 01:56:29;;;;;;;19.38;11.48;;;;;;;;;;5066362;28;20041;-72
2022/06/04 01:58:58;;;;;;;20.17;11.13;;;;;;;;;;5073337;28;20139;-73
2022/06/04 02:01:33;;;;;;;19.05;10.32;;;;;;;;;;5072961;28;20084;-73
2022/06/04 02:04:07;;;;;;;24.35;11.23;;;;;;;;;;5053689;28;20045;-72
2022/06/04 02:06:35;;;;;;;16.60;11.23;;;;;;;;;;5066655;28;20048;-71
2022/06/04 02:09:06;;;;;;;19.42;10.48;;;;;;;;;;5073266;28;20049;-72
2022/06/04 02:11:32;;;;;;;21.70;9.83;;;;;;;;;;5060485;28;20044;-72
2022/06/04 02:14:02;;;;;;;22.15;10.45;;;;;;;;;;5065398;28;20044;-72
2022/06/04 02:16:28;;;;;;;22.73;10.45;;;;;;;;;;5070622;28;20056;-72
2022/06/04 02:18:56;;;;;;;21.77;10.85;;;;;;;;;;5055871;28;20049;-72
2022/06/04 02:21:22;;;;;;;21.27;10.15;;;;;;;;;;5052409;28;20514;-72
2022/06/04 02:23:49;;;;;;;21.02;11.43;;;;;;;;;;5052229;28;20506;-72
2022/06/04 02:26:16;;;;;;;21.73;11.20;;;;;;;;;;5052132;28;20384;-72
2022/06/04 02:28:42;;;;;;;23.40;11.30;;;;;;;;;;5070498;28;20601;-72
2022/06/04 02:31:08;;;;;;;17.90;10.27;;;;;;;;;;5059722;28;20049;-72
2022/06/04 02:33:42;;;;;;;21.67;10.88;;;;;;;;;;5052417;28;20044;-73
2022/06/04 02:36:11;;;;;;;21.20;10.55;;;;;;;;;;5083204;28;20040;-73
2022/06/04 02:38:44;;;;;;;24.98;11.75;;;;;;;;;;5086573;28;20057;-73
2022/06/04 02:41:14;;;;;;;19.55;11.40;;;;;;;;;;5064171;28;20499;-73
2022/06/04 02:43:45;;;;;;;27.20;11.70;;;;;;;;;;5072707;28;20406;-74
2022/06/04 02:46:12;;;;;;;19.00;10.82;;;;;;;;;;5053294;28;20124;-72
2022/06/04 02:48:41;;;;;;;20.33;10.68;;;;;;;;;;5062003;28;20045;-72
2022/06/04 02:51:10;;;;;;;16.73;10.07;;;;;;;;;;5055213;28;20049;-73
2022/06/04 02:53:37;;;;;;;19.38;10.35;;;;;;;;;;5060322;28;20044;-73
2022/06/04 02:56:15;;;;;;;18.75;9.73;;;;;;;;;;5052606;28;20045;-72
2022/06/04 02:58:42;;;;;;;17.08;10.93;;;;;;;;;;5055450;28;20495;-73
2022/06/04 03:01:10;;;;;;;20.60;10.98;;;;;;;;;;5052343;28;20045;-72
2022/06/04 03:03:36;;;;;;;21.05;11.38;;;;;;;;;;5052498;28;20408;-72
2022/06/04 03:06:03;;;;;;;15.20;10.20;;;;;;;;;;5068384;28;20075;-73
2022/06/04 03:08:31;;;;;;;19.10;10.70;;;;;;;;;;5084564;28;20047;-74
2022/06/04 03:10:57;;;;;;;20.65;9.95;;;;;;;;;;5070512;28;20056;-73
2022/06/04 03:13:24;;;;;;;17.35;10.30;;;;;;;;;;5053526;28;20128;-73
2022/06/04 03:15:50;;;;;;;19.92;10.63;;;;;;;;;;5052266;28;20529;-73
2022/06/04 03:18:16;;;;;;;20.95;10.43;;;;;;;;;;5052415;28;20079;-73
2022/06/04 03:20:43;;;;;;;17.02;10.43;;;;;;;;;;5063145;28;20040;-73
2022/06/04 03:23:09;;;;;;;22.83;10.60;;;;;;;;;;5062399;28;20045;-73
2022/06/04 03:25:36;;;;;;;20.00;10.93;;;;;;;;;;5060021;28;20072;-73
2022/06/04 03:28:02;;;;;;;19.75;11.27;;;;;;;;;;5068014;28;20036;-74
2022/06/04 03:30:28;;;;;;;19.02;9.77;;;;;;;;;;5079548;28;20056;-73
2022/06/04 03:32:54;;;;;;;17.05;10.63;;;;;;;;;;5060739;28;20044;-72
2022/06/04 03:35:21;;;;;;;19.10;10.98;;;;;;;;;;5076392;28;20071;-73
2022/06/04 03:37:47;;;;;;;17.83;11.30;;;;;;;;;;5074182;28;20047;-73
2022/06/04 03:40:14;;;;;;;16.80;10.93;;;;;;;;;;5082583;28;20052;-73
2022/06/04 03:42:40;;;;;;;18.65;11.35;;;;;;;;;;5056091;28;20057;-73
2022/06/04 03:45:07;;;;;;;20.80;11.48;;;;;;;;;;5056166;28;20085;-74
2022/06/04 03:47:36;;;;;;;17.60;10.18;;;;;;;;;;5060092;28;20136;-72
2022/06/04 03:50:04;;;;;;;21.80;12.13;;;;;;;;;;5074912;28;20063;-72
2022/06/04 03:52:30;;;;;;;17.13;10.65;;;;;;;;;;5069108;28;20066;-73
2022/06/04 03:54:57;;;;;;;19.30;9.50;;;;;;;;;;5075957;28;20553;-73
2022/06/04 03:57:45;;;;;;;20.45;10.05;;;;;;;;;;5057599;28;20060;-72
2022/06/04 04:00:19;;;;;;;18.77;10.43;;;;;;;;;;5065917;28;20118;-72
2022/06/04 04:02:50;;;;;;;14.90;10.48;;;;;;;;;;5056845;28;20499;-72
2022/06/04 04:05:16;;;;;;;;;;;;;;;;;;5056250;28;20094;-73
2022/06/04 04:07:42;;;;;;;21.20;9.80;;;;;;;;;;5062961;28;19976;-72
2022/06/04 04:10:08;;;;;;;17.23;9.65;;;;;;;;;;5073930;28;20044;-73
2022/06/04 04:12:34;;;;;;;15.00;10.13;;;;;;;;;;5068792;28;20043;-73
2022/06/04 04:15:00;;;;;;;19.52;9.25;;;;;;;;;;5058815;28;20119;-74
2022/06/04 04:17:26;;;;;;;15.45;8.93;;;;;;;;;;5074452;28;20115;-73
2022/06/04 04:19:53;;;;;;;17.33;8.50;;;;;;;;;;5075457;28;20056;-73
2022/06/04 04:22:19;;;;;;;11.00;7.38;;;;;;;;;;5068839;28;20075;-72
2022/06/04 04:24:45;;;;;;;11.60;7.10;;;;;;;;;;5059488;28;20073;-73
2022/06/04 04:27:14;;;;;;;12.73;7.22;;;;;;;;;;5063909;28;20049;-73
2022/06/04 04:29:40;;;;;;;12.88;6.97;;;;;;;;;;5071981;28;20048;-73
2022/06/04 04:32:07;;;;;;;11.23;6.45;;;;;;;;;;5066382;28;20047;-73
2022/06/04 04:34:33;;;;;;;11.05;5.90;;;;;;;;;;5075173;28;20135;-73
2022/06/04 04:37:00;;;;;;;13.23;5.95;;;;;;;;;;5072942;28;20044;-72
2022/06/04 04:39:26;;;;;;;11.30;6.43;;;;;;;;;;5070496;28;20036;-73
2022/06/04 04:41:52;;;;;;;11.65;6.28;;;;;;;;;;5054451;28;20057;-73
2022/06/04 04:44:18;;;;;;;10.65;5.95;;;;;;;;;;5077859;28;20494;-73
2022/06/04 04:46:44;;;;;;;13.10;6.57;;;;;;;;;;5058332;28;20106;-73
2022/06/04 04:49:11;;;;;;;13.90;6.43;;;;;;;;;;5054583;28;20520;-72
2022/06/04 04:51:37;;;;;;;10.48;6.03;;;;;;;;;;5054818;28;20048;-72
2022/06/04 04:54:03;;;;;;;10.90;6.50;;;;;;;;;;5059537;28;20049;-73
2022/06/04 04:56:29;;;;;;;14.82;6.55;;;;;;;;;;5054721;28;20484;-73
2022/06/04 04:58:55;;;;;;;14.70;6.78;;;;;;;;;;5054863;28;20130;-72
2022/06/04 05:01:26;;;;;;;12.27;6.03;;;;;;;;;;5086501;28;20384;-73
2022/06/04 05:03:52;;;;;;;11.20;6.45;;;;;;;;;;5068071;28;20044;-72
2022/06/04 05:06:19;;;;;;;14.77;6.28;;;;;;;;;;5056789;28;20045;-73
2022/06/04 05:08:46;;;;;;;12.07;6.57;;;;;;;;;;5057005;28;20088;-73
2022/06/04 05:11:15;;;;;;;11.95;6.03;;;;;;;;;;5065829;28;20048;-73
2022/06/04 05:13:41;;;;;;;10.80;6.72;;;;;;;;;;5070457;28;20051;-73
2022/06/04 05:16:08;;;;;;;11.50;6.55;;;;;;;;;;5089403;28;20068;-73
2022/06/04 05:18:34;;;;;;;11.85;6.13;;;;;;;;;;5094768;28;20052;-73
2022/06/04 05:21:17;;;;;;;12.85;6.40;;;;;;;;;;5064185;28;20462;-73
2022/06/04 05:23:44;;;;;;;12.57;6.30;;;;;;;;;;5064605;28;20052;-73
2022/06/04 05:26:10;;;;;;;11.82;5.88;;;;;;;;;;5072578;28;20146;-73
2022/06/04 05:28:36;;;;;;;12.10;6.22;;;;;;;;;;5061902;28;20052;-72
2022/06/04 05:31:02;;;;;;;10.35;5.65;;;;;;;;;;5052838;28;20068;-72
2022/06/04 05:33:28;;;;;;;11.10;5.88;;;;;;;;;;5060807;28;20130;-73
2022/06/04 05:35:54;;;;;;;7.05;4.88;;;;;;;;;;5067928;28;20415;-73
2022/06/04 05:38:21;;;;;;;9.75;5.28;;;;;;;;;;5054659;28;20127;-74
2022/06/04 05:40:47;;;;;;;11.93;5.50;;;;;;;;;;5092238;28;20080;-73
2022/06/04 05:43:13;;;;;;;11.02;5.63;;;;;;;;;;5083665;28;20080;-73
2022/06/04 05:45:39;;;;;;;10.20;5.20;;;;;;;;;;5073769;28;20487;-72
2022/06/04 05:48:06;;;;;;;7.65;4.65;;;;;;;;;;5085578;28;20052;-73
2022/06/04 05:50:33;;;;;;;7.38;4.40;;;;;;;;;;5073479;28;20084;-73
2022/06/04 05:52:59;;;;;;;9.57;4.63;;;;;;;;;;5067638;28;20087;-73
2022/06/04 05:55:26;;;;;;;8.77;4.80;;;;;;;;;;5070586;28;20512;-73
2022/06/04 05:57:52;;;;;;;11.93;5.05;;;;;;;;;;5073627;28;20160;-72
2022/06/04 06:00:18;;;;;;;7.55;4.60;;;;;;;;;;5069334;28;20127;-73
2022/06/04 06:02:44;;;;;;;7.03;4.70;;;;;;;;;;5066036;28;20094;-73
2022/06/04 06:05:10;;;;;;;11.15;4.82;;;;;;;;;;5076882;28;20565;-73
2022/06/04 06:07:36;;;;;;;7.75;5.25;;;;;;;;;;5087776;28;20127;-72
2022/06/04 06:10:02;;;;;;;10.15;4.93;;;;;;;;;;5057106;28;20064;-73
2022/06/04 06:12:28;;;;;;;7.43;4.20;;;;;;;;;;5068924;28;20049;-73
2022/06/04 06:14:54;;;;;;;9.13;4.40;;;;;;;;;;5058096;28;20102;-73
2022/06/04 06:17:20;;;;;;;8.65;4.72;;;;;;;;;;5073159;28;20131;-72
2022/06/04 06:19:46;;;;;;;10.85;4.68;;;;;;;;;;5073429;28;20041;-72
2022/06/04 06:22:12;;;;;;;9.10;4.50;;;;;;;;;;5069381;28;20127;-73
2022/06/04 06:24:39;;;;;;;9.02;4.68;;;;;;;;;;5072554;28;20040;-73
2022/06/04 06:27:07;;;;;;;6.57;4.47;;;;;;;;;;5058108;28;20048;-73
2022/06/04 06:29:33;;;;;;;9.25;4.70;;;;;;;;;;5053221;28;20103;-73
2022/06/04 06:32:00;;;;;;;8.25;4.18;;;;;;;;;;5052815;28;20048;-73
2022/06/04 06:34:27;;;;;;;8.13;4.50;;;;;;;;;;5069127;28;20044;-72
2022/06/04 06:36:53;;;;;;;7.95;5.18;;;;;;;;;;5071943;28;20067;-72
2022/06/04 06:39:19;;;;;;;7.53;4.30;;;;;;;;;;5060778;28;20077;-72
2022/06/04 06:41:46;;;;;;;10.38;3.97;;;;;;;;;;5054680;28;20048;-72
2022/06/04 06:44:12;;;;;;;7.78;4.47;;;;;;;;;;5072033;28;20608;-72
2022/06/04 06:46:39;;;;;;;8.50;4.75;;;;;;;;;;5059110;28;20106;-72
2022/06/04 06:49:07;;;;;;;7.50;4.10;;;;;;;;;;5073766;28;20449;-72
2022/06/04 06:51:36;;;;;;;8.55;4.35;;;;;;;;;;5060548;28;20049;-73
2022/06/04 06:54:02;;;;;;;10.70;4.55;;;;;;;;;;5071502;28;20048;-73
2022/06/04 06:56:30;;;;;;;7.75;4.32;;;;;;;;;;5072785;28;20094;-72
2022/06/04 06:58:56;;;;;;;9.63;4.78;;;;;;;;;;5064913;28;20130;-73
2022/06/04 07:01:24;;;;;;;8.82;4.45;;;;;;;;;;5059104;28;20555;-72
2022/06/04 07:03:51;;;;;;;7.18;4.40;;;;;;;;;;5072320;28;20510;-73
2022/06/04 07:06:27;;;;;;;9.27;4.45;;;;;;;;;;5074635;28;20513;-72
2022/06/04 07:08:53;;;;;;;7.70;4.00;;;;;;;;;;5061924;28;20045;-72
2022/06/04 07:11:19;;;;;;;9.18;4.32;;;;;;;;;;5056769;28;20487;-73
2022/06/04 07:13:45;;;;;;;8.23;4.25;;;;;;;;;;5056730;28;20045;-72
2022/06/04 07:16:11;;;;;;;8.90;4.72;;;;;;;;;;5058337;28;20052;-72
2022/06/04 07:18:38;;;;;;;7.68;4.00;;;;;;;;;;5065908;28;20397;-73
2022/06/04 07:21:05;;;;;;;8.10;4.18;;;;;;;;;;5076601;28;20055;-73
2022/06/04 07:23:34;;;;;;;9.57;3.95;;;;;;;;;;5075728;28;20123;-72
2022/06/04 07:26:00;;;;;;;7.68;4.07;;;;;;;;;;5075909;28;20048;-72
2022/06/04 07:28:26;;;;;;;7.40;4.30;;;;;;;;;;5075699;28;20044;-73
2022/06/04 07:30:53;;;;;;;7.28;4.13;;;;;;;;;;5075157;28;20401;-73
2022/06/04 07:33:19;;;;;;;7.60;3.92;;;;;;;;;;5071556;28;20097;-72
2022/06/04 07:35:47;;;;;;;9.27;4.70;;;;;;;;;;5073956;28;20047;-73
2022/06/04 07:38:13;;;;;;;8.38;4.55;;;;;;;;;;5057358;28;20202;-72
2022/06/04 07:40:39;;;;;;;8.63;4.72;;;;;;;;;;5064051;28;20049;-72
2022/06/04 07:43:05;;;;;;;7.55;4.78;;;;;;;;;;5075434;28;20072;-73
2022/06/04 07:45:34;;;;;;;7.80;4.47;;;;;;;;;;5075395;28;20517;-73
2022/06/04 07:48:01;;;;;;;7.28;4.72;;;;;;;;;;5063508;28;20048;-74
2022/06/04 07:50:27;;;;;;;6.43;4.07;;;;;;;;;;5096567;28;20037;-75
2022/06/04 07:52:53;;;;;;;7.53;4.72;;;;;;;;;;5085019;28;20410;-75
2022/06/04 07:55:19;;;;;;;9.27;4.88;;;;;;;;;;5076078;28;20040;-74
2022/06/04 07:57:45;;;;;;;8.10;4.43;;;;;;;;;;5076558;28;20102;-75
2022/06/04 08:00:12;;;;;;;7.13;4.18;;;;;;;;;;5068962;28;20094;-73
2022/06/04 08:02:38;;;;;;;7.57;4.63;;;;;;;;;;5055890;28;20063;-73
2022/06/04 08:05:04;;;;;;;7.00;3.70;;;;;;;;;;5056025;28;20049;-75
2022/06/04 08:07:30;;;;;;;6.63;4.18;;;;;;;;;;5055582;28;20502;-75
2022/06/04 08:09:56;;;;;;;8.35;4.10;;;;;;;;;;5055763;28;20041;-74
2022/06/04 08:12:23;;;;;;;8.95;4.32;;;;;;;;;;5057294;28;20124;-76
2022/06/04 08:14:49;;;;;;;8.75;4.40;;;;;;;;;;5064144;28;20473;-75
2022/06/04 08:17:15;;;;;;;8.05;5.00;;;;;;;;;;5057117;28;20041;-75
2022/06/04 08:19:41;;;;;;;6.70;4.18;;;;;;;;;;5074594;28;20044;-74
2022/06/04 08:22:07;;;;;;;8.48;4.55;;;;;;;;;;5075326;28;20473;-74
2022/06/04 08:24:33;;;;;;;8.93;4.72;;;;;;;;;;5070494;28;20053;-74
2022/06/04 08:27:02;;;;;;;9.57;4.63;;;;;;;;;;5067867;28;20044;-74
2022/06/04 08:29:30;;;;;;;9.70;4.75;;;;;;;;;;5072991;28;20510;-74
2022/06/04 08:31:56;;;;;;;8.00;3.95;;;;;;;;;;5075544;28;20128;-75
2022/06/04 08:34:22;;;;;;;8.45;4.15;;;;;;;;;;5074854;28;20037;-74
2022/06/04 08:36:49;;;;;;;7.75;4.45;;;;;;;;;;5069927;28;20036;-73
2022/06/04 08:39:16;;;;;;;7.22;3.80;;;;;;;;;;5092383;28;20048;-73
2022/06/04 08:41:48;;;;;;;9.57;4.72;;;;;;;;;;5066709;28;20395;-74
2022/06/04 08:44:14;;;;;;;8.70;4.65;;;;;;;;;;5065752;28;20128;-75
2022/06/04 08:46:42;;;;;;;7.32;4.45;;;;;;;;;;5058886;28;20589;-74
2022/06/04 08:49:24;;;;;;;8.63;4.82;;;;;;;;;;5078229;28;20043;-73
2022/06/04 08:51:50;;;;;;;10.43;4.93;;;;;;;;;;5070691;28;20041;-74
2022/06/04 09:00:09;;;;;;;9.63;5.47;;;;;;;;;;5074813;28;20053;-74
2022/06/04 09:03:05;;;;;;;8.77;4.85;;;;;;;;;;5072303;28;20047;-73
2022/06/04 09:05:50;;;;;;;8.43;5.20;;;;;;;;;;5070950;28;20041;-74
2022/06/04 09:08:21;;;;;;;8.23;5.38;;;;;;;;;;5070770;28;20040;-74
2022/06/04 09:10:48;;;;;;;;;;;;;;;;;;5056898;28;20053;-74
2022/06/04 09:13:23;;;;;;;8.35;4.70;;;;;;;;;;5072003;28;19920;-74
2022/06/04 09:15:58;;;;;;;9.15;5.03;;;;;;;;;;5070052;28;20482;-74
2022/06/04 09:18:34;;;;;;;9.73;5.30;;;;;;;;;;5066531;28;20044;-73
2022/06/04 09:21:01;;;;;;;8.98;5.32;;;;;;;;;;5071845;28;20134;-73
2022/06/04 09:23:30;;;;;;;6.85;4.55;;;;;;;;;;5071720;28;20086;-74
2022/06/04 09:26:01;;;;;;;6.85;4.60;;;;;;;;;;5072064;28;20052;-74
2022/06/04 09:28:29;;;;;;;8.00;5.00;;;;;;;;;;5055747;28;20056;-73
2022/06/04 09:31:09;;;;;;;8.07;5.25;;;;;;;;;;5071679;28;20044;-73
2022/06/04 09:33:42;;;;;;;7.38;4.95;;;;;;;;;;5070863;28;22126;-73
2022/06/04 09:36:11;;;;;;;10.65;5.18;;;;;;;;;;5071958;28;20060;-73
2022/06/04 09:38:37;;;;;;;7.88;4.57;;;;;;;;;;5071897;28;20045;-74
2022/06/04 09:41:05;;;;;;;7.82;4.40;;;;;;;;;;5088934;28;20490;-75
2022/06/04 09:43:32;;;;;;;9.50;5.00;;;;;;;;;;5070216;28;20124;-74
2022/06/04 09:46:01;;;;;;;7.95;4.60;;;;;;;;;;5071215;28;20114;-74
2022/06/04 09:48:38;;;;;;;9.80;4.70;;;;;;;;;;5072027;28;20048;-73
2022/06/04 09:51:08;;;;;;;10.20;4.97;;;;;;;;;;5069428;28;20036;-74
2022/06/04 09:53:42;;;;;;;9.98;4.63;;;;;;;;;;5062085;28;20090;-73
2022/06/04 09:56:09;;;;;;;7.72;5.03;;;;;;;;;;5081837;28;20049;-74
2022/06/04 09:58:36;;;;;;;7.32;4.43;;;;;;;;;;5071802;28;20067;-74
2022/06/04 10:01:10;;;;;;;9.65;4.68;;;;;;;;;;5052543;28;20045;-74
2022/06/04 10:03:37;;;;;;;9.13;5.57;;;;;;;;;;5053567;28;20048;-74
2022/06/04 10:06:11;;;;;;;8.23;5.07;;;;;;;;;;5067644;28;20402;-73
2022/06/04 10:11:25;;;;;;;8.77;6.05;;;;;;;;;;5073581;28;20056;-74
2022/06/04 10:13:56;;;;;;;8.73;5.65;;;;;;;;;;5065697;28;20052;-74
2022/06/04 10:16:24;;;;;;;9.00;5.22;;;;;;;;;;5062748;28;20040;-74
2022/06/04 10:18:55;;;;;;;7.13;4.72;;;;;;;;;;5069385;28;20442;-73
2022/06/04 10:21:22;;;;;;;9.00;5.72;;;;;;;;;;5061771;28;20041;-74
2022/06/04 10:23:50;;;;;;;7.85;5.38;;;;;;;;;;5073537;28;20115;-74
2022/06/04 10:26:25;;;;;;;10.23;5.68;;;;;;;;;;5073630;28;20071;-75
2022/06/04 10:28:54;;;;;;;11.77;5.15;;;;;;;;;;5071753;28;20063;-74
2022/06/04 10:31:36;;;;;;;9.70;5.43;;;;;;;;;;5071931;28;20113;-74
2022/06/04 10:34:20;;;;;;;8.35;5.32;;;;;;;;;;5073354;28;20153;-74
2022/06/04 10:37:05;;;;;;;9.85;5.38;;;;;;;;;;5072292;28;20085;-75
2022/06/04 10:39:37;;;;;;;7.53;5.18;;;;;;;;;;5072364;28;20047;-74
2022/06/04 10:42:15;;;;;;;8.65;4.47;;;;;;;;;;5072730;28;20060;-74
2022/06/04 10:44:44;;;;;;;9.48;4.60;;;;;;;;;;5067676;28;20521;-74
2022/06/04 10:47:23;;;;;;;6.35;3.95;;;;;;;;;;5071087;28;20094;-74
2022/06/04 10:49:49;;;;;;;5.85;3.50;;;;;;;;;;5053241;28;20055;-74
2022/06/04 10:52:35;;;;;;;8.60;4.55;;;;;;;;;;5052929;28;20037;-72
2022/06/04 10:55:06;;;;;;;10.88;4.65;;;;;;;;;;5053661;28;20041;-74
2022/06/04 10:57:36;;;;;;;9.25;4.35;;;;;;;;;;5052779;28;20509;-73
2022/06/04 11:00:19;;;;;;;9.23;3.78;;;;;;;;;;5063291;28;20059;-74
2022/06/04 11:02:52;;;;;;;9.40;3.88;;;;;;;;;;5065813;28;20075;-74
2022/06/04 11:05:27;;;;;;;7.22;3.83;;;;;;;;;;5071049;28;20049;-74
2022/06/04 11:08:04;;;;;;;6.78;3.60;;;;;;;;;;5072981;28;20045;-73
2022/06/04 11:10:33;;;;;;;5.93;3.45;;;;;;;;;;5070645;28;20135;-74
2022/06/04 11:13:13;;;;;;;7.47;3.38;;;;;;;;;;5061769;28;20052;-74
2022/06/04 11:15:45;;;;;;;7.18;3.72;;;;;;;;;;5064519;28;20056;-73
2022/06/04 11:18:13;;;;;;;7.18;3.38;;;;;;;;;;5071599;28;20048;-73
2022/06/04 11:20:43;;;;;;;7.57;3.45;;;;;;;;;;5071965;28;20045;-74
2022/06/04 11:23:28;;;;;;;6.00;2.50;;;;;;;;;;5071845;28;20049;-74
2022/06/04 11:26:01;;;;;;;6.30;2.97;;;;;;;;;;5072646;28;20048;-74
2022/06/04 11:28:27;;;;;;;7.55;3.28;;;;;;;;;;5071075;28;20040;-73
2022/06/04 11:30:53;;;;;;;6.35;3.08;;;;;;;;;;5062904;28;20092;-74
2022/06/04 11:33:32;;;;;;;6.30;3.25;;;;;;;;;;5054218;28;20131;-73
2022/06/04 11:36:01;;;;;;;5.63;3.00;;;;;;;;;;5071365;28;20439;-74
2022/06/04 11:38:47;;;;;;;7.38;3.60;;;;;;;;;;5072498;28;20057;-74
2022/06/04 11:41:18;;;;;;;8.02;3.65;;;;;;;;;;5056890;28;20040;-74
2022/06/04 11:43:55;;;;;;;10.15;3.50;;;;;;;;;;5065084;28;20492;-73
2022/06/04 11:46:41;;;;;;;8.77;3.55;;;;;;;;;;5052084;28;20037;-74
2022/06/04 11:49:07;;;;;;;7.75;3.78;;;;;;;;;;5052655;28;20088;-72
2022/06/04 11:51:52;;;;;;;7.35;3.03;;;;;;;;;;5052866;28;20037;-74
2022/06/04 11:54:37;;;;;;;5.85;3.10;;;;;;;;;;5055737;28;20051;-73
2022/06/04 11:57:12;;;;;;;6.97;3.10;;;;;;;;;;5056497;28;20119;-74
2022/06/04 11:59:48;;;;;;;7.68;3.30;;;;;;;;;;5059222;28;20098;-74
2022/06/04 12:02:18;;;;;;;5.85;3.15;;;;;;;;;;5065042;28;20041;-74
2022/06/04 12:04:52;;;;;;;6.13;2.87;;;;;;;;;;5055624;28;20541;-75
2022/06/04 12:07:21;;;;;;;6.68;2.85;;;;;;;;;;5070772;28;20313;-73
2022/06/04 12:09:47;;;;;;;6.55;2.95;;;;;;;;;;5060122;28;20557;-74
2022/06/04 12:12:25;;;;;;;6.18;2.92;;;;;;;;;;5095083;28;20044;-74
2022/06/04 12:14:54;;;;;;;7.32;2.75;;;;;;;;;;5060250;28;20463;-75
2022/06/04 12:17:25;;;;;;;6.47;3.00;;;;;;;;;;5074231;28;20040;-76
2022/06/04 12:25:40;;;;;;;7.55;3.10;;;;;;;;;;5075844;28;20056;-75
2022/06/04 12:28:18;;;;;;;7.47;3.42;;;;;;;;;;5065659;28;20110;-75
2022/06/04 12:30:46;;;;;;;6.80;3.10;;;;;;;;;;5075843;28;20032;-74
2022/06/04 12:33:32;;;;;;;9.23;3.20;;;;;;;;;;5075364;28;20399;-76
2022/06/04 12:35:59;;;;;;;5.93;3.25;;;;;;;;;;5057782;28;20526;-73
2022/06/04 12:38:25;;;;;;;5.85;3.17;;;;;;;;;;5070079;28;20037;-72
2022/06/04 12:40:51;;;;;;;6.32;3.05;;;;;;;;;;5071964;28;20040;-74
2022/06/04 12:43:27;;;;;;;5.43;2.97;;;;;;;;;;5070067;28;20060;-75
2022/06/04 12:46:05;;;;;;;9.43;3.30;;;;;;;;;;5071532;28;20060;-73
2022/06/04 12:48:31;;;;;;;6.57;3.30;;;;;;;;;;5100965;28;20086;-74
2022/06/04 12:51:03;;;;;;;6.10;2.80;;;;;;;;;;5072460;28;20032;-75
2022/06/04 12:53:31;;;;;;;8.63;2.90;;;;;;;;;;5055048;28;20098;-74
2022/06/04 12:56:00;;;;;;;8.23;2.75;;;;;;;;;;5070523;28;20052;-76
2022/06/04 12:58:35;;;;;;;5.60;2.60;;;;;;;;;;5071319;28;20060;-74
2022/06/04 13:01:23;;;;;;;5.95;2.90;;;;;;;;;;5054893;28;20064;-75
2022/06/04 13:04:03;;;;;;;7.68;3.22;;;;;;;;;;5066800;28;20112;-74
2022/06/04 13:06:48;;;;;;;5.88;3.00;;;;;;;;;;5059667;28;20175;-74
2022/06/04 13:09:33;;;;;;;6.18;2.80;;;;;;;;;;5061811;28;20041;-73
2022/06/04 13:12:04;;;;;;;6.05;3.00;;;;;;;;;;5073014;28;20511;-74
2022/06/04 13:14:36;;;;;;;6.47;2.80;;;;;;;;;;5068473;28;20049;-72
2022/06/04 13:17:17;;;;;;;5.10;2.88;;;;;;;;;;5057831;28;20045;-73
2022/06/04 13:19:49;;;;;;;6.50;2.65;;;;;;;;;;5073416;28;20052;-73
2022/06/04 13:22:21;;;;;;;7.68;2.83;;;;;;;;;;5053966;28;20081;-75
2022/06/04 13:24:47;;;;;;;7.80;2.92;;;;;;;;;;5072845;28;20490;-76
2022/06/04 13:27:16;;;;;;;5.03;2.50;;;;;;;;;;5073644;28;20052;-77
2022/06/04 13:29:42;;;;;;;7.28;2.40;;;;;;;;;;5069145;28;20057;-76
2022/06/04 13:32:13;;;;;;;8.32;2.70;;;;;;;;;;5063292;28;20045;-73
2022/06/04 13:34:40;;;;;;;7.50;2.85;;;;;;;;;;5054679;28;20551;-74
2022/06/04 13:37:07;;;;;;;6.38;2.67;;;;;;;;;;5053571;28;20037;-73
2022/06/04 13:39:34;;;;;;;7.63;2.83;;;;;;;;;;5071676;28;20049;-72
2022/06/04 13:42:11;;;;;;;7.32;2.90;;;;;;;;;;5055685;28;20040;-73
2022/06/04 13:44:39;;;;;;;6.80;2.63;;;;;;;;;;5067751;28;20505;-73
2022/06/04 13:47:10;;;;;;;7.97;2.72;;;;;;;;;;5074043;28;20060;-75
2022/06/04 13:49:37;;;;;;;6.15;2.60;;;;;;;;;;5072028;28;20036;-72
2022/06/04 13:52:30;;;;;;;9.02;2.72;;;;;;;;;;5069604;28;20079;-72
2022/06/04 13:55:01;;;;;;;7.32;2.92;;;;;;;;;;5064212;28;20411;-73
2022/06/04 13:57:27;;;;;;;6.47;2.95;;;;;;;;;;5061642;28;20513;-74
2022/06/04 13:59:55;;;;;;;5.57;2.95;;;;;;;;;;5064998;28;20075;-74
2022/06/04 14:02:22;;;;;;;6.30;2.60;;;;;;;;;;5068399;28;20053;-73
2022/06/04 14:07:39;;;;;;;9.07;3.10;;;;;;;;;;5059849;28;20426;-72
2022/06/04 14:10:10;;;;;;;6.38;3.10;;;;;;;;;;5062242;28;20487;-76
2022/06/04 14:12:48;;;;;;;6.05;2.92;;;;;;;;;;5068013;28;20044;-75
2022/06/04 14:15:19;;;;;;;8.18;2.90;;;;;;;;;;5058217;28;20090;-73
2022/06/04 14:17:46;;;;;;;8.48;3.10;;;;;;;;;;5080615;28;20502;-75
2022/06/04 14:20:30;;;;;;;7.35;3.30;;;;;;;;;;5073606;28;20498;-74
2022/06/04 14:22:59;;;;;;;8.07;3.25;;;;;;;;;;5072791;28;20045;-75
2022/06/04 14:25:44;;;;;;;6.22;2.97;;;;;;;;;;5072930;28;20554;-72
2022/06/04 14:28:16;;;;;;;5.88;2.85;;;;;;;;;;5073667;28;20044;-74
2022/06/04 14:31:01;;;;;;;7.68;3.30;;;;;;;;;;5071512;28;20047;-73
2022/06/04 14:33:27;;;;;;;6.30;3.17;;;;;;;;;;5065010;28;20047;-74
2022/06/04 14:36:04;;;;;;;7.50;3.42;;;;;;;;;;5071662;28;20067;-73
2022/06/04 14:38:31;;;;;;;6.15;3.00;;;;;;;;;;5054001;28;20045;-73
2022/06/04 14:41:00;;;;;;;6.47;3.00;;;;;;;;;;5054006;28;20045;-74
2022/06/04 14:43:44;;;;;;;6.55;2.80;;;;;;;;;;5053747;28;20175;-74
2022/06/04 14:46:30;;;;;;;6.20;3.00;;;;;;;;;;5066530;28;20121;-72
2022/06/04 14:48:56;;;;;;;5.65;3.10;;;;;;;;;;5073018;28;20059;-74
2022/06/04 14:51:34;;;;;;;5.65;3.00;;;;;;;;;;5072730;28;20058;-74
2022/06/04 14:54:05;;;;;;;8.05;3.20;;;;;;;;;;5072722;28;20052;-72
2022/06/04 14:56:50;;;;;;;6.72;3.35;;;;;;;;;;5073658;28;20049;-74
2022/06/04 14:59:22;;;;;;;6.72;3.05;;;;;;;;;;5071738;28;20441;-73
2022/06/04 15:02:07;;;;;;;8.07;3.10;;;;;;;;;;5071894;28;20541;-74
2022/06/04 15:04:59;;;;;;;5.95;3.10;;;;;;;;;;5073531;28;20632;-73
2022/06/04 15:07:25;;;;;;;7.25;2.90;;;;;;;;;;5073502;28;20052;-72
2022/06/04 15:09:54;;;;;;;5.85;3.00;;;;;;;;;;5073291;28;20060;-73
2022/06/04 15:12:39;;;;;;;6.68;3.53;;;;;;;;;;5074804;28;20045;-74
2022/06/04 15:15:07;;;;;;;6.38;3.22;;;;;;;;;;5056633;28;20080;-74